sensor_id;sensor_type;location;lat;lon;timestamp;P1;durP1;ratioP1;P2;durP2;ratioP2
29358;SDS011;16347;53.232;6.556;2024-03-17T00:00:27;19.90;;;3.50;;
29358;SDS011;16347;53.232;6.556;2024-03-17T00:02:54;21.55;;;4.07;;
29358;SDS011;16347;53.232;6.556;2024-03-17T00:05:20;16.15;;;3.70;;
29358;SDS011;16347;53.232;6.556;2024-03-17T00:07:48;13.30;;;4.38;;
29358;SDS011;16347;53.232;6.556;2024-03-17T00:10:14;18.75;;;3.80;;
29358;SDS011;16347;53.232;6.556;2024-03-17T00:12:41;13.63;;;4.10;;
29358;SDS011;16347;53.232;6.556;2024-03-17T00:15:07;15.82;;;3.80;;
29358;SDS011;16347;53.232;6.556;2024-03-17T00:17:35;12.80;;;3.20;;
29358;SDS011;16347;53.232;6.556;2024-03-17T00:20:02;17.38;;;3.33;;
29358;SDS011;16347;53.232;6.556;2024-03-17T00:22:34;16.95;;;3.45;;
29358;SDS011;16347;53.232;6.556;2024-03-17T00:25:04;17.13;;;3.40;;
29358;SDS011;16347;53.232;6.556;2024-03-17T00:27:32;10.40;;;3.20;;
29358;SDS011;16347;53.232;6.556;2024-03-17T00:29:58;11.35;;;3.38;;
29358;SDS011;16347;53.232;6.556;2024-03-17T00:32:25;14.98;;;3.15;;
29358;SDS011;16347;53.232;6.556;2024-03-17T00:34:50;8.70;;;3.25;;
29358;SDS011;16347;53.232;6.556;2024-03-17T00:37:18;22.10;;;3.50;;
29358;SDS011;16347;53.232;6.556;2024-03-17T00:39:44;16.83;;;3.38;;
29358;SDS011;16347;53.232;6.556;2024-03-17T00:42:12;10.95;;;2.92;;
29358;SDS011;16347;53.232;6.556;2024-03-17T00:44:39;11.85;;;3.83;;
29358;SDS011;16347;53.232;6.556;2024-03-17T00:47:07;19.33;;;3.65;;
29358;SDS011;16347;53.232;6.556;2024-03-17T00:49:33;15.43;;;3.20;;
29358;SDS011;16347;53.232;6.556;2024-03-17T00:52:00;7.93;;;2.95;;
29358;SDS011;16347;53.232;6.556;2024-03-17T00:54:26;14.73;;;3.45;;
29358;SDS011;16347;53.232;6.556;2024-03-17T00:56:54;9.10;;;3.13;;
29358;SDS011;16347;53.232;6.556;2024-03-17T00:59:21;12.63;;;3.38;;
29358;SDS011;16347;53.232;6.556;2024-03-17T01:01:48;8.80;;;2.90;;
29358;SDS011;16347;53.232;6.556;2024-03-17T01:04:14;11.80;;;3.33;;
29358;SDS011;16347;53.232;6.556;2024-03-17T01:06:41;9.43;;;3.72;;
29358;SDS011;16347;53.232;6.556;2024-03-17T01:09:07;17.85;;;3.65;;
29358;SDS011;16347;53.232;6.556;2024-03-17T01:11:34;11.90;;;3.67;;
29358;SDS011;16347;53.232;6.556;2024-03-17T01:14:00;12.70;;;3.45;;
29358;SDS011;16347;53.232;6.556;2024-03-17T01:16:28;8.45;;;3.13;;
29358;SDS011;16347;53.232;6.556;2024-03-17T01:18:54;8.35;;;3.10;;
29358;SDS011;16347;53.232;6.556;2024-03-17T01:21:21;8.85;;;3.40;;
29358;SDS011;16347;53.232;6.556;2024-03-17T01:23:48;11.90;;;3.38;;
29358;SDS011;16347;53.232;6.556;2024-03-17T01:26:14;12.68;;;2.88;;
29358;SDS011;16347;53.232;6.556;2024-03-17T01:28:40;15.30;;;3.35;;
29358;SDS011;16347;53.232;6.556;2024-03-17T01:31:08;9.80;;;3.80;;
29358;SDS011;16347;53.232;6.556;2024-03-17T01:33:36;13.15;;;3.75;;
29358;SDS011;16347;53.232;6.556;2024-03-17T01:36:02;12.27;;;3.67;;
29358;SDS011;16347;53.232;6.556;2024-03-17T01:38:28;17.48;;;3.67;;
29358;SDS011;16347;53.232;6.556;2024-03-17T01:40:55;9.02;;;3.10;;
29358;SDS011;16347;53.232;6.556;2024-03-17T01:43:21;13.00;;;3.67;;
29358;SDS011;16347;53.232;6.556;2024-03-17T01:45:49;15.38;;;3.90;;
29358;SDS011;16347;53.232;6.556;2024-03-17T01:48:15;17.05;;;3.72;;
29358;SDS011;16347;53.232;6.556;2024-03-17T01:50:46;17.45;;;4.30;;
29358;SDS011;16347;53.232;6.556;2024-03-17T01:53:14;8.75;;;3.70;;
29358;SDS011;16347;53.232;6.556;2024-03-17T01:55:42;9.73;;;3.60;;
29358;SDS011;16347;53.232;6.556;2024-03-17T01:58:09;12.05;;;3.42;;
29358;SDS011;16347;53.232;6.556;2024-03-17T02:00:36;10.20;;;3.42;;
29358;SDS011;16347;53.232;6.556;2024-03-17T02:03:04;14.40;;;3.47;;
29358;SDS011;16347;53.232;6.556;2024-03-17T02:05:31;12.93;;;3.95;;
29358;SDS011;16347;53.232;6.556;2024-03-17T02:07:58;11.93;;;3.25;;
29358;SDS011;16347;53.232;6.556;2024-03-17T02:10:25;11.63;;;4.05;;
29358;SDS011;16347;53.232;6.556;2024-03-17T02:12:51;8.77;;;3.75;;
29358;SDS011;16347;53.232;6.556;2024-03-17T02:15:20;10.68;;;3.55;;
29358;SDS011;16347;53.232;6.556;2024-03-17T02:17:45;14.48;;;3.22;;
29358;SDS011;16347;53.232;6.556;2024-03-17T02:20:12;11.93;;;3.92;;
29358;SDS011;16347;53.232;6.556;2024-03-17T02:22:40;16.73;;;4.65;;
29358;SDS011;16347;53.232;6.556;2024-03-17T02:25:07;14.23;;;3.58;;
29358;SDS011;16347;53.232;6.556;2024-03-17T02:27:34;7.78;;;3.50;;
29358;SDS011;16347;53.232;6.556;2024-03-17T02:30:01;10.65;;;4.10;;
29358;SDS011;16347;53.232;6.556;2024-03-17T02:32:27;14.00;;;4.47;;
29358;SDS011;16347;53.232;6.556;2024-03-17T02:34:53;11.70;;;4.13;;
29358;SDS011;16347;53.232;6.556;2024-03-17T02:37:20;14.30;;;3.70;;
29358;SDS011;16347;53.232;6.556;2024-03-17T02:39:48;14.90;;;4.43;;
29358;SDS011;16347;53.232;6.556;2024-03-17T02:42:15;10.00;;;3.95;;
29358;SDS011;16347;53.232;6.556;2024-03-17T02:44:42;12.75;;;4.28;;
29358;SDS011;16347;53.232;6.556;2024-03-17T02:47:08;11.55;;;3.70;;
29358;SDS011;16347;53.232;6.556;2024-03-17T02:49:35;14.13;;;4.43;;
29358;SDS011;16347;53.232;6.556;2024-03-17T02:52:05;13.45;;;3.97;;
29358;SDS011;16347;53.232;6.556;2024-03-17T02:54:33;14.40;;;4.20;;
29358;SDS011;16347;53.232;6.556;2024-03-17T02:57:02;12.38;;;3.90;;
29358;SDS011;16347;53.232;6.556;2024-03-17T02:59:29;13.02;;;3.80;;
29358;SDS011;16347;53.232;6.556;2024-03-17T03:01:56;15.20;;;3.97;;
29358;SDS011;16347;53.232;6.556;2024-03-17T03:04:24;9.88;;;4.05;;
29358;SDS011;16347;53.232;6.556;2024-03-17T03:06:51;14.07;;;3.75;;
29358;SDS011;16347;53.232;6.556;2024-03-17T03:09:18;9.38;;;3.40;;
29358;SDS011;16347;53.232;6.556;2024-03-17T03:11:51;15.70;;;3.83;;
29358;SDS011;16347;53.232;6.556;2024-03-17T03:14:20;13.10;;;3.80;;
29358;SDS011;16347;53.232;6.556;2024-03-17T03:16:47;9.07;;;3.08;;
29358;SDS011;16347;53.232;6.556;2024-03-17T03:19:14;7.10;;;3.35;;
29358;SDS011;16347;53.232;6.556;2024-03-17T03:21:42;9.60;;;3.80;;
29358;SDS011;16347;53.232;6.556;2024-03-17T03:24:08;10.00;;;3.05;;
29358;SDS011;16347;53.232;6.556;2024-03-17T03:26:34;10.00;;;3.45;;
29358;SDS011;16347;53.232;6.556;2024-03-17T03:29:01;7.70;;;2.92;;
29358;SDS011;16347;53.232;6.556;2024-03-17T03:31:31;10.15;;;3.15;;
29358;SDS011;16347;53.232;6.556;2024-03-17T03:33:58;8.30;;;2.88;;
29358;SDS011;16347;53.232;6.556;2024-03-17T03:36:27;7.38;;;2.75;;
29358;SDS011;16347;53.232;6.556;2024-03-17T03:38:54;8.20;;;2.67;;
29358;SDS011;16347;53.232;6.556;2024-03-17T03:41:22;12.65;;;2.90;;
29358;SDS011;16347;53.232;6.556;2024-03-17T03:43:50;8.23;;;2.75;;
29358;SDS011;16347;53.232;6.556;2024-03-17T03:46:17;7.13;;;2.20;;
29358;SDS011;16347;53.232;6.556;2024-03-17T03:48:46;12.35;;;2.30;;
29358;SDS011;16347;53.232;6.556;2024-03-17T03:51:13;5.63;;;1.88;;
29358;SDS011;16347;53.232;6.556;2024-03-17T03:53:40;7.70;;;2.50;;
29358;SDS011;16347;53.232;6.556;2024-03-17T03:56:07;8.65;;;2.10;;
29358;SDS011;16347;53.232;6.556;2024-03-17T03:58:36;5.25;;;1.92;;
29358;SDS011;16347;53.232;6.556;2024-03-17T04:01:04;9.05;;;2.60;;
29358;SDS011;16347;53.232;6.556;2024-03-17T04:03:32;9.00;;;2.25;;
29358;SDS011;16347;53.232;6.556;2024-03-17T04:06:07;12.18;;;2.38;;
29358;SDS011;16347;53.232;6.556;2024-03-17T04:08:36;9.30;;;2.30;;
29358;SDS011;16347;53.232;6.556;2024-03-17T04:11:05;11.20;;;2.08;;
29358;SDS011;16347;53.232;6.556;2024-03-17T04:13:33;10.82;;;2.55;;
29358;SDS011;16347;53.232;6.556;2024-03-17T04:16:00;13.20;;;2.60;;
29358;SDS011;16347;53.232;6.556;2024-03-17T04:18:30;8.48;;;2.40;;
29358;SDS011;16347;53.232;6.556;2024-03-17T04:21:01;12.75;;;2.80;;
29358;SDS011;16347;53.232;6.556;2024-03-17T04:23:31;6.95;;;2.20;;
29358;SDS011;16347;53.232;6.556;2024-03-17T04:25:58;11.43;;;3.40;;
29358;SDS011;16347;53.232;6.556;2024-03-17T04:28:25;11.38;;;3.45;;
29358;SDS011;16347;53.232;6.556;2024-03-17T04:30:52;11.30;;;3.75;;
29358;SDS011;16347;53.232;6.556;2024-03-17T04:33:19;9.80;;;2.92;;
29358;SDS011;16347;53.232;6.556;2024-03-17T04:35:46;8.27;;;2.78;;
29358;SDS011;16347;53.232;6.556;2024-03-17T04:38:13;9.07;;;2.47;;
29358;SDS011;16347;53.232;6.556;2024-03-17T04:40:43;14.07;;;3.03;;
29358;SDS011;16347;53.232;6.556;2024-03-17T04:43:10;6.93;;;2.67;;
29358;SDS011;16347;53.232;6.556;2024-03-17T04:45:36;8.48;;;2.38;;
29358;SDS011;16347;53.232;6.556;2024-03-17T04:48:04;8.00;;;2.42;;
29358;SDS011;16347;53.232;6.556;2024-03-17T04:50:32;6.63;;;2.33;;
29358;SDS011;16347;53.232;6.556;2024-03-17T04:52:59;11.25;;;2.60;;
29358;SDS011;16347;53.232;6.556;2024-03-17T04:55:26;9.18;;;1.92;;
29358;SDS011;16347;53.232;6.556;2024-03-17T04:57:55;6.45;;;1.90;;
29358;SDS011;16347;53.232;6.556;2024-03-17T05:00:22;8.05;;;2.17;;
29358;SDS011;16347;53.232;6.556;2024-03-17T05:02:49;7.72;;;2.10;;
29358;SDS011;16347;53.232;6.556;2024-03-17T05:05:15;7.93;;;2.13;;
29358;SDS011;16347;53.232;6.556;2024-03-17T05:07:42;8.65;;;1.92;;
29358;SDS011;16347;53.232;6.556;2024-03-17T05:10:09;6.88;;;1.95;;
29358;SDS011;16347;53.232;6.556;2024-03-17T05:12:36;14.93;;;2.60;;
29358;SDS011;16347;53.232;6.556;2024-03-17T05:15:05;9.55;;;1.88;;
29358;SDS011;16347;53.232;6.556;2024-03-17T05:17:32;9.13;;;1.90;;
29358;SDS011;16347;53.232;6.556;2024-03-17T05:19:59;7.97;;;2.28;;
29358;SDS011;16347;53.232;6.556;2024-03-17T05:22:27;7.00;;;2.10;;
29358;SDS011;16347;53.232;6.556;2024-03-17T05:24:54;8.07;;;1.98;;
29358;SDS011;16347;53.232;6.556;2024-03-17T05:27:20;6.55;;;2.72;;
29358;SDS011;16347;53.232;6.556;2024-03-17T05:29:47;9.75;;;2.60;;
29358;SDS011;16347;53.232;6.556;2024-03-17T05:32:18;12.90;;;2.90;;
29358;SDS011;16347;53.232;6.556;2024-03-17T05:34:44;9.35;;;2.65;;
29358;SDS011;16347;53.232;6.556;2024-03-17T05:37:12;13.50;;;2.83;;
29358;SDS011;16347;53.232;6.556;2024-03-17T05:39:39;7.03;;;2.65;;
29358;SDS011;16347;53.232;6.556;2024-03-17T05:42:06;11.23;;;2.63;;
29358;SDS011;16347;53.232;6.556;2024-03-17T05:44:33;6.47;;;2.80;;
29358;SDS011;16347;53.232;6.556;2024-03-17T05:47:16;8.70;;;2.40;;
29358;SDS011;16347;53.232;6.556;2024-03-17T05:49:45;9.80;;;3.03;;
29358;SDS011;16347;53.232;6.556;2024-03-17T05:52:12;10.43;;;2.92;;
29358;SDS011;16347;53.232;6.556;2024-03-17T05:54:39;14.88;;;3.33;;
29358;SDS011;16347;53.232;6.556;2024-03-17T05:57:05;10.75;;;3.10;;
29358;SDS011;16347;53.232;6.556;2024-03-17T05:59:34;10.98;;;2.95;;
29358;SDS011;16347;53.232;6.556;2024-03-17T06:02:01;11.68;;;3.40;;
29358;SDS011;16347;53.232;6.556;2024-03-17T06:04:29;13.57;;;3.80;;
29358;SDS011;16347;53.232;6.556;2024-03-17T06:06:56;11.05;;;3.05;;
29358;SDS011;16347;53.232;6.556;2024-03-17T06:09:23;12.00;;;2.92;;
29358;SDS011;16347;53.232;6.556;2024-03-17T06:11:50;11.10;;;3.20;;
29358;SDS011;16347;53.232;6.556;2024-03-17T06:14:17;12.70;;;3.20;;
29358;SDS011;16347;53.232;6.556;2024-03-17T06:16:45;13.23;;;3.05;;
29358;SDS011;16347;53.232;6.556;2024-03-17T06:19:12;15.63;;;3.40;;
29358;SDS011;16347;53.232;6.556;2024-03-17T06:21:41;11.25;;;3.53;;
29358;SDS011;16347;53.232;6.556;2024-03-17T06:24:08;10.82;;;2.95;;
29358;SDS011;16347;53.232;6.556;2024-03-17T06:26:35;11.38;;;2.80;;
29358;SDS011;16347;53.232;6.556;2024-03-17T06:29:01;9.50;;;3.30;;
29358;SDS011;16347;53.232;6.556;2024-03-17T06:31:28;18.95;;;3.90;;
29358;SDS011;16347;53.232;6.556;2024-03-17T06:33:56;17.73;;;3.17;;
29358;SDS011;16347;53.232;6.556;2024-03-17T06:36:23;10.00;;;3.65;;
29358;SDS011;16347;53.232;6.556;2024-03-17T06:38:51;10.90;;;3.50;;
29358;SDS011;16347;53.232;6.556;2024-03-17T06:41:19;10.23;;;4.10;;
29358;SDS011;16347;53.232;6.556;2024-03-17T06:43:46;12.15;;;3.00;;
29358;SDS011;16347;53.232;6.556;2024-03-17T06:46:12;10.68;;;3.38;;
29358;SDS011;16347;53.232;6.556;2024-03-17T06:48:39;12.45;;;3.72;;
29358;SDS011;16347;53.232;6.556;2024-03-17T06:51:07;12.68;;;3.67;;
29358;SDS011;16347;53.232;6.556;2024-03-17T06:53:34;15.27;;;3.63;;
29358;SDS011;16347;53.232;6.556;2024-03-17T06:56:03;12.25;;;3.88;;
29358;SDS011;16347;53.232;6.556;2024-03-17T06:58:31;16.85;;;3.78;;
29358;SDS011;16347;53.232;6.556;2024-03-17T07:00:58;15.45;;;3.60;;
29358;SDS011;16347;53.232;6.556;2024-03-17T07:03:26;11.27;;;3.83;;
29358;SDS011;16347;53.232;6.556;2024-03-17T07:05:55;10.77;;;3.33;;
29358;SDS011;16347;53.232;6.556;2024-03-17T07:08:23;10.35;;;3.28;;
29358;SDS011;16347;53.232;6.556;2024-03-17T07:10:57;14.50;;;3.50;;
29358;SDS011;16347;53.232;6.556;2024-03-17T07:13:27;12.25;;;3.25;;
29358;SDS011;16347;53.232;6.556;2024-03-17T07:15:55;15.57;;;3.33;;
29358;SDS011;16347;53.232;6.556;2024-03-17T07:18:24;14.05;;;3.28;;
29358;SDS011;16347;53.232;6.556;2024-03-17T07:20:51;11.63;;;3.60;;
29358;SDS011;16347;53.232;6.556;2024-03-17T07:23:18;12.20;;;3.35;;
29358;SDS011;16347;53.232;6.556;2024-03-17T07:25:51;15.90;;;3.00;;
29358;SDS011;16347;53.232;6.556;2024-03-17T07:30:47;9.85;;;2.75;;
29358;SDS011;16347;53.232;6.556;2024-03-17T07:33:15;12.10;;;2.90;;
29358;SDS011;16347;53.232;6.556;2024-03-17T07:35:49;11.95;;;2.97;;
29358;SDS011;16347;53.232;6.556;2024-03-17T07:38:17;13.63;;;2.70;;
29358;SDS011;16347;53.232;6.556;2024-03-17T07:40:45;11.38;;;2.90;;
29358;SDS011;16347;53.232;6.556;2024-03-17T07:43:22;13.57;;;2.67;;
29358;SDS011;16347;53.232;6.556;2024-03-17T07:45:57;19.27;;;3.55;;
29358;SDS011;16347;53.232;6.556;2024-03-17T07:48:25;11.23;;;2.38;;
29358;SDS011;16347;53.232;6.556;2024-03-17T07:50:55;13.07;;;3.03;;
29358;SDS011;16347;53.232;6.556;2024-03-17T07:53:22;12.75;;;2.60;;
29358;SDS011;16347;53.232;6.556;2024-03-17T07:55:59;10.23;;;2.60;;
29358;SDS011;16347;53.232;6.556;2024-03-17T07:58:26;13.48;;;2.55;;
29358;SDS011;16347;53.232;6.556;2024-03-17T08:00:57;17.25;;;3.13;;
29358;SDS011;16347;53.232;6.556;2024-03-17T08:03:26;11.43;;;2.60;;
29358;SDS011;16347;53.232;6.556;2024-03-17T08:05:54;9.95;;;2.55;;
29358;SDS011;16347;53.232;6.556;2024-03-17T08:08:21;9.68;;;3.30;;
29358;SDS011;16347;53.232;6.556;2024-03-17T08:10:48;20.08;;;3.20;;
29358;SDS011;16347;53.232;6.556;2024-03-17T08:13:15;10.68;;;2.63;;
29358;SDS011;16347;53.232;6.556;2024-03-17T08:15:42;12.48;;;2.80;;
29358;SDS011;16347;53.232;6.556;2024-03-17T08:18:10;11.73;;;2.47;;
29358;SDS011;16347;53.232;6.556;2024-03-17T08:20:38;7.00;;;2.60;;
29358;SDS011;16347;53.232;6.556;2024-03-17T08:23:05;11.98;;;2.22;;
29358;SDS011;16347;53.232;6.556;2024-03-17T08:25:32;14.77;;;2.92;;
29358;SDS011;16347;53.232;6.556;2024-03-17T08:28:00;12.32;;;2.30;;
29358;SDS011;16347;53.232;6.556;2024-03-17T08:30:27;15.63;;;3.00;;
29358;SDS011;16347;53.232;6.556;2024-03-17T08:32:54;12.45;;;2.50;;
29358;SDS011;16347;53.232;6.556;2024-03-17T08:35:22;18.00;;;3.20;;
29358;SDS011;16347;53.232;6.556;2024-03-17T08:37:49;13.95;;;2.83;;
29358;SDS011;16347;53.232;6.556;2024-03-17T08:40:19;14.95;;;2.85;;
29358;SDS011;16347;53.232;6.556;2024-03-17T08:42:47;14.40;;;2.72;;
29358;SDS011;16347;53.232;6.556;2024-03-17T08:45:14;15.32;;;2.90;;
29358;SDS011;16347;53.232;6.556;2024-03-17T08:47:41;10.48;;;3.05;;
29358;SDS011;16347;53.232;6.556;2024-03-17T08:50:08;9.75;;;3.50;;
29358;SDS011;16347;53.232;6.556;2024-03-17T08:52:39;13.32;;;3.15;;
29358;SDS011;16347;53.232;6.556;2024-03-17T08:55:07;7.07;;;2.35;;
29358;SDS011;16347;53.232;6.556;2024-03-17T08:57:39;12.65;;;2.83;;
29358;SDS011;16347;53.232;6.556;2024-03-17T09:00:06;9.85;;;2.90;;
29358;SDS011;16347;53.232;6.556;2024-03-17T09:02:34;9.07;;;2.75;;
29358;SDS011;16347;53.232;6.556;2024-03-17T09:05:01;13.32;;;2.83;;
29358;SDS011;16347;53.232;6.556;2024-03-17T09:07:30;13.10;;;2.70;;
29358;SDS011;16347;53.232;6.556;2024-03-17T09:09:58;19.00;;;2.92;;
29358;SDS011;16347;53.232;6.556;2024-03-17T09:12:26;9.02;;;3.13;;
29358;SDS011;16347;53.232;6.556;2024-03-17T09:14:53;11.82;;;2.42;;
29358;SDS011;16347;53.232;6.556;2024-03-17T09:17:20;13.73;;;3.20;;
29358;SDS011;16347;53.232;6.556;2024-03-17T09:19:47;15.27;;;3.25;;
29358;SDS011;16347;53.232;6.556;2024-03-17T09:22:14;16.85;;;3.35;;
29358;SDS011;16347;53.232;6.556;2024-03-17T09:24:40;9.43;;;3.10;;
29358;SDS011;16347;53.232;6.556;2024-03-17T09:27:09;12.90;;;3.53;;
29358;SDS011;16347;53.232;6.556;2024-03-17T09:29:36;15.20;;;3.33;;
29358;SDS011;16347;53.232;6.556;2024-03-17T09:32:03;14.30;;;4.32;;
29358;SDS011;16347;53.232;6.556;2024-03-17T09:34:30;16.95;;;3.53;;
29358;SDS011;16347;53.232;6.556;2024-03-17T09:36:57;14.55;;;3.97;;
29358;SDS011;16347;53.232;6.556;2024-03-17T09:39:24;14.30;;;4.30;;
29358;SDS011;16347;53.232;6.556;2024-03-17T09:41:51;12.15;;;3.90;;
29358;SDS011;16347;53.232;6.556;2024-03-17T09:44:19;12.70;;;4.05;;
29358;SDS011;16347;53.232;6.556;2024-03-17T09:46:46;19.60;;;4.90;;
29358;SDS011;16347;53.232;6.556;2024-03-17T09:49:14;17.30;;;4.63;;
29358;SDS011;16347;53.232;6.556;2024-03-17T09:51:42;12.00;;;4.68;;
29358;SDS011;16347;53.232;6.556;2024-03-17T09:54:15;16.52;;;4.70;;
29358;SDS011;16347;53.232;6.556;2024-03-17T09:56:44;10.10;;;4.13;;
29358;SDS011;16347;53.232;6.556;2024-03-17T09:59:11;15.60;;;4.95;;
29358;SDS011;16347;53.232;6.556;2024-03-17T10:01:39;9.65;;;3.95;;
29358;SDS011;16347;53.232;6.556;2024-03-17T10:04:08;13.57;;;4.18;;
29358;SDS011;16347;53.232;6.556;2024-03-17T10:06:44;14.38;;;4.30;;
29358;SDS011;16347;53.232;6.556;2024-03-17T10:09:14;13.57;;;4.53;;
29358;SDS011;16347;53.232;6.556;2024-03-17T10:11:46;16.65;;;5.05;;
29358;SDS011;16347;53.232;6.556;2024-03-17T10:14:16;17.08;;;4.68;;
29358;SDS011;16347;53.232;6.556;2024-03-17T10:16:45;14.73;;;5.15;;
29358;SDS011;16347;53.232;6.556;2024-03-17T10:19:12;12.38;;;5.32;;
29358;SDS011;16347;53.232;6.556;2024-03-17T10:21:40;19.52;;;5.18;;
29358;SDS011;16347;53.232;6.556;2024-03-17T10:24:09;14.73;;;5.38;;
29358;SDS011;16347;53.232;6.556;2024-03-17T10:26:37;17.73;;;5.40;;
29358;SDS011;16347;53.232;6.556;2024-03-17T10:29:15;16.02;;;5.68;;
29358;SDS011;16347;53.232;6.556;2024-03-17T10:31:51;13.07;;;5.47;;
29358;SDS011;16347;53.232;6.556;2024-03-17T10:34:19;19.67;;;6.03;;
29358;SDS011;16347;53.232;6.556;2024-03-17T10:36:50;17.65;;;5.65;;
29358;SDS011;16347;53.232;6.556;2024-03-17T10:39:24;17.77;;;5.53;;
29358;SDS011;16347;53.232;6.556;2024-03-17T10:41:57;16.17;;;5.82;;
29358;SDS011;16347;53.232;6.556;2024-03-17T10:44:26;15.65;;;5.43;;
29358;SDS011;16347;53.232;6.556;2024-03-17T10:46:56;19.73;;;5.88;;
29358;SDS011;16347;53.232;6.556;2024-03-17T10:49:27;15.73;;;5.85;;
29358;SDS011;16347;53.232;6.556;2024-03-17T10:51:57;21.02;;;6.25;;
29358;SDS011;16347;53.232;6.556;2024-03-17T10:54:25;18.65;;;6.22;;
29358;SDS011;16347;53.232;6.556;2024-03-17T10:56:54;22.10;;;6.38;;
29358;SDS011;16347;53.232;6.556;2024-03-17T10:59:25;17.75;;;6.10;;
29358;SDS011;16347;53.232;6.556;2024-03-17T11:02:01;17.33;;;6.38;;
29358;SDS011;16347;53.232;6.556;2024-03-17T11:04:29;14.75;;;5.65;;
29358;SDS011;16347;53.232;6.556;2024-03-17T11:06:57;11.63;;;5.80;;
29358;SDS011;16347;53.232;6.556;2024-03-17T11:09:26;13.57;;;5.68;;
29358;SDS011;16347;53.232;6.556;2024-03-17T11:11:53;15.20;;;6.57;;
29358;SDS011;16347;53.232;6.556;2024-03-17T11:14:20;16.55;;;6.53;;
29358;SDS011;16347;53.232;6.556;2024-03-17T11:16:49;13.55;;;6.38;;
29358;SDS011;16347;53.232;6.556;2024-03-17T11:19:17;19.70;;;6.63;;
29358;SDS011;16347;53.232;6.556;2024-03-17T11:21:44;17.98;;;7.43;;
29358;SDS011;16347;53.232;6.556;2024-03-17T11:24:18;17.40;;;6.50;;
29358;SDS011;16347;53.232;6.556;2024-03-17T11:26:46;16.20;;;6.68;;
29358;SDS011;16347;53.232;6.556;2024-03-17T11:29:26;14.07;;;6.30;;
29358;SDS011;16347;53.232;6.556;2024-03-17T11:31:54;19.83;;;6.95;;
29358;SDS011;16347;53.232;6.556;2024-03-17T11:40:22;17.42;;;6.53;;
29358;SDS011;16347;53.232;6.556;2024-03-17T11:43:00;22.85;;;7.30;;
29358;SDS011;16347;53.232;6.556;2024-03-17T11:45:26;18.90;;;8.32;;
29358;SDS011;16347;53.232;6.556;2024-03-17T11:47:53;12.80;;;6.53;;
29358;SDS011;16347;53.232;6.556;2024-03-17T11:50:20;17.25;;;7.35;;
29358;SDS011;16347;53.232;6.556;2024-03-17T11:52:57;15.55;;;7.60;;
29358;SDS011;16347;53.232;6.556;2024-03-17T11:55:24;20.02;;;7.57;;
29358;SDS011;16347;53.232;6.556;2024-03-17T11:57:55;15.68;;;7.38;;
29358;SDS011;16347;53.232;6.556;2024-03-17T12:00:22;16.25;;;6.40;;
29358;SDS011;16347;53.232;6.556;2024-03-17T12:02:51;17.25;;;7.45;;
29358;SDS011;16347;53.232;6.556;2024-03-17T12:05:17;14.13;;;8.02;;
29358;SDS011;16347;53.232;6.556;2024-03-17T12:07:48;20.92;;;7.78;;
29358;SDS011;16347;53.232;6.556;2024-03-17T12:10:14;16.80;;;8.02;;
29358;SDS011;16347;53.232;6.556;2024-03-17T12:12:46;15.50;;;7.85;;
29358;SDS011;16347;53.232;6.556;2024-03-17T12:15:15;15.05;;;8.88;;
29358;SDS011;16347;53.232;6.556;2024-03-17T12:17:43;17.40;;;7.90;;
29358;SDS011;16347;53.232;6.556;2024-03-17T12:20:16;17.30;;;8.45;;
29358;SDS011;16347;53.232;6.556;2024-03-17T12:22:44;19.25;;;8.90;;
29358;SDS011;16347;53.232;6.556;2024-03-17T12:25:14;18.75;;;8.23;;
29358;SDS011;16347;53.232;6.556;2024-03-17T12:27:43;16.15;;;8.77;;
29358;SDS011;16347;53.232;6.556;2024-03-17T12:30:10;17.17;;;8.90;;
29358;SDS011;16347;53.232;6.556;2024-03-17T12:32:38;18.88;;;8.25;;
29358;SDS011;16347;53.232;6.556;2024-03-17T12:35:09;15.52;;;8.02;;
29358;SDS011;16347;53.232;6.556;2024-03-17T12:37:42;15.38;;;7.85;;
29358;SDS011;16347;53.232;6.556;2024-03-17T12:40:19;15.25;;;8.48;;
29358;SDS011;16347;53.232;6.556;2024-03-17T12:42:47;15.18;;;8.15;;
29358;SDS011;16347;53.232;6.556;2024-03-17T12:45:18;15.95;;;8.23;;
29358;SDS011;16347;53.232;6.556;2024-03-17T12:47:47;15.38;;;7.75;;
29358;SDS011;16347;53.232;6.556;2024-03-17T12:50:14;21.67;;;8.95;;
29358;SDS011;16347;53.232;6.556;2024-03-17T12:52:43;16.13;;;8.95;;
29358;SDS011;16347;53.232;6.556;2024-03-17T12:55:19;19.13;;;9.00;;
29358;SDS011;16347;53.232;6.556;2024-03-17T12:58:07;20.88;;;10.57;;
29358;SDS011;16347;53.232;6.556;2024-03-17T13:00:58;21.10;;;9.10;;
29358;SDS011;16347;53.232;6.556;2024-03-17T13:03:27;19.77;;;9.90;;
29358;SDS011;16347;53.232;6.556;2024-03-17T13:05:57;18.58;;;8.82;;
29358;SDS011;16347;53.232;6.556;2024-03-17T13:08:24;16.38;;;9.82;;
29358;SDS011;16347;53.232;6.556;2024-03-17T13:10:52;25.50;;;10.98;;
29358;SDS011;16347;53.232;6.556;2024-03-17T13:13:19;18.20;;;9.80;;
29358;SDS011;16347;53.232;6.556;2024-03-17T13:15:46;18.45;;;9.93;;
29358;SDS011;16347;53.232;6.556;2024-03-17T13:18:15;20.00;;;10.57;;
29358;SDS011;16347;53.232;6.556;2024-03-17T13:20:45;24.08;;;9.93;;
29358;SDS011;16347;53.232;6.556;2024-03-17T13:23:12;22.40;;;10.48;;
29358;SDS011;16347;53.232;6.556;2024-03-17T13:25:39;23.60;;;10.07;;
29358;SDS011;16347;53.232;6.556;2024-03-17T13:28:10;21.45;;;9.52;;
29358;SDS011;16347;53.232;6.556;2024-03-17T13:30:37;21.42;;;9.85;;
29358;SDS011;16347;53.232;6.556;2024-03-17T13:33:05;17.35;;;9.30;;
29358;SDS011;16347;53.232;6.556;2024-03-17T13:35:34;20.17;;;10.32;;
29358;SDS011;16347;53.232;6.556;2024-03-17T13:38:04;19.45;;;9.73;;
29358;SDS011;16347;53.232;6.556;2024-03-17T13:40:32;15.65;;;9.57;;
29358;SDS011;16347;53.232;6.556;2024-03-17T13:42:59;17.65;;;9.60;;
29358;SDS011;16347;53.232;6.556;2024-03-17T13:45:28;17.92;;;9.50;;
29358;SDS011;16347;53.232;6.556;2024-03-17T13:48:04;23.17;;;9.95;;
29358;SDS011;16347;53.232;6.556;2024-03-17T13:50:34;22.45;;;10.50;;
29358;SDS011;16347;53.232;6.556;2024-03-17T13:53:01;20.90;;;10.13;;
29358;SDS011;16347;53.232;6.556;2024-03-17T13:55:29;15.75;;;9.20;;
29358;SDS011;16347;53.232;6.556;2024-03-17T13:57:56;24.13;;;10.02;;
29358;SDS011;16347;53.232;6.556;2024-03-17T14:00:25;19.98;;;9.48;;
29358;SDS011;16347;53.232;6.556;2024-03-17T14:02:54;21.38;;;9.77;;
29358;SDS011;16347;53.232;6.556;2024-03-17T14:05:23;21.40;;;9.63;;
29358;SDS011;16347;53.232;6.556;2024-03-17T14:07:53;18.80;;;9.32;;
29358;SDS011;16347;53.232;6.556;2024-03-17T14:10:21;17.50;;;8.63;;
29358;SDS011;16347;53.232;6.556;2024-03-17T14:12:49;18.25;;;9.65;;
29358;SDS011;16347;53.232;6.556;2024-03-17T14:15:17;15.48;;;8.68;;
29358;SDS011;16347;53.232;6.556;2024-03-17T14:17:44;16.50;;;8.93;;
29358;SDS011;16347;53.232;6.556;2024-03-17T14:20:14;16.33;;;9.10;;
29358;SDS011;16347;53.232;6.556;2024-03-17T14:22:43;17.23;;;9.32;;
29358;SDS011;16347;53.232;6.556;2024-03-17T14:25:14;17.48;;;9.20;;
29358;SDS011;16347;53.232;6.556;2024-03-17T14:27:42;15.00;;;8.45;;
29358;SDS011;16347;53.232;6.556;2024-03-17T14:30:10;16.67;;;9.50;;
29358;SDS011;16347;53.232;6.556;2024-03-17T14:32:42;18.55;;;9.20;;
29358;SDS011;16347;53.232;6.556;2024-03-17T14:35:09;13.18;;;8.82;;
29358;SDS011;16347;53.232;6.556;2024-03-17T14:37:41;15.10;;;8.32;;
29358;SDS011;16347;53.232;6.556;2024-03-17T14:40:13;17.13;;;9.68;;
29358;SDS011;16347;53.232;6.556;2024-03-17T14:42:45;17.10;;;8.93;;
29358;SDS011;16347;53.232;6.556;2024-03-17T14:45:12;20.67;;;8.65;;
29358;SDS011;16347;53.232;6.556;2024-03-17T14:47:39;15.07;;;8.35;;
29358;SDS011;16347;53.232;6.556;2024-03-17T14:50:07;12.05;;;7.90;;